Tiempo atmosférico en la estación meteorológica de Cabrales, Asturias (458 m.)



Fecha
DESCASC
Temp. máxima en grados centígrados (hora)
DESCASC
Temp. mínima en grados centígrados (hora)
DESCASC
Temp. media en grados centígrados
DESCASC
Racha de viento máxima en m/sg (hora)
DESCASC
Velocidad máxima media en intervalos de 10 minutos(hora)
DESCASC
Precipitaciones diarias en mm
DESCASC
Precipitaciones de 00:00 a 06:00 en mm
DESCASC
Precipitaciones de 06:00 a 12:00 en mm
DESCASC
Precipitaciones de 12:00 a 18:00 en mm
DESCASC
Precipitaciones de 18:00 a 24:00 en mm
DESCASC
06-07-2020 20.8 (13:10) 13.7 (23:40) 17.2 9.17 (16:30) 5.28 (16:20) 0 0 0 0 0
05-07-2020 26.8 (13:30) 14.4 (07:00) 20.6 7.22 (16:30) 4.72 (22:10) 0 0 0 0 0
04-07-2020 26 (17:10) 10.3 (07:10) 18.2 6.94 (20:20) 5.28 (20:20) 0 0 0 0 0
03-07-2020 19.8 (15:30) 11 (05:40) 15.4 6.11 (13:30) 4.72 (13:30) 0.2 0.2 0 0 0
02-07-2020 15.8 (14:20) 11.7 (00:00) 13.8 8.61 (09:00) 5.83 (09:10) 4.2 0.2 0.8 1 2.2
01-07-2020 19.7 (13:10) 13.6 (00:00) 16.7 7.5 (18:20) 5 (18:00) 0.8 0 0 0.4 0.4
30-06-2020 27.3 (16:20) 11.7 (00:00) 19.5 6.67 (19:40) 4.72 (17:50) 0.6 0.2 0 0 0.4
29-06-2020 18.8 (18:00) 13.9 (00:00) 16.3 5.83 (02:10) 3.89 (02:10) 0.4 0.2 0 0.2 0
28-06-2020 25.1 (15:20) 14.2 (00:00) 19.7 7.78 (18:00) 5.56 (17:50) 3.2 0.6 0 0 2.6
27-06-2020 25.4 (14:00) 13.9 (00:00) 19.6 7.22 (19:10) 5.28 (19:40) 0 0 0 0 0
26-06-2020 23 (17:30) 13.4 (00:00) 18.2 5 (17:40) 3.61 (18:10) 0.8 0.6 0.2 0 0
25-06-2020 22.1 (11:50) 14.5 (00:00) 18.3 10.83 (01:20) 7.5 (01:30) 1.2 0 0 0 1.2
24-06-2020 27.7 (14:50) 17.4 (00:00) 22.6 10 (18:30) 6.39 (18:20) 0 0 0 0 0
23-06-2020 31.9 (17:00) 13.9 (00:00) 22.9 4.17 (16:00) 3.33 (19:20) 0 0 0 0 0
22-06-2020 28 (16:20) 13.2 (00:00) 20.6 7.78 (17:40) 4.72 (18:50) 0 0 0 0 0
21-06-2020 25.1 (13:50) 12.9 (00:00) 19 7.5 (14:40) 5.28 (14:40) 0 0 0 0 0
20-06-2020 22.4 (19:10) 11 (00:00) 16.7 6.67 (14:40) 5 (14:40) 0 0 0 0 0
19-06-2020 19.3 (18:30) 10.8 (00:00) 15 4.72 (14:30) 3.61 (15:00) 0 0 0 0 0
18-06-2020 19.7 (15:10) 10.5 (00:00) 15.1 6.39 (14:40) 4.17 (14:10) 0.8 0.6 0.2 0 0
17-06-2020 19.1 (16:40) 10.9 (00:00) 15 9.44 (13:40) 6.39 (13:40) 4.6 0.4 0.4 0.8 3
16-06-2020 15.7 (16:30) 11.3 (00:00) 13.5 10.28 (14:10) 6.94 (22:20) 4.4 1.6 1.2 1.4 0.2
15-06-2020 19.9 (14:10) 11.7 (00:00) 15.8 7.78 (11:40) 4.44 (13:00) 6 0.4 0 4.8 0.8
14-06-2020 20.6 (13:20) 10.2 (00:00) 15.4 6.11 (17:50) 3.61 (17:40) 1 0.2 0 0 0.8
13-06-2020 19.8 (14:30) 10.9 (00:00) 15.3 8.06 (12:00) 4.72 (04:30) 12.2 0.6 0 6.8 4.8
12-06-2020 17 (18:00) 8.2 (00:00) 12.6 19.44 (15:10) 11.11 (14:40) 4.2 0.4 0.2 3 0.6
11-06-2020 14.9 (10:40) 8.1 (00:00) 11.5 16.39 (12:20) 12.22 (12:40) 12 0 4.6 5 2.4

Gráficas

Temp. máximas Temp. mínimas Temp. medias Precipitaciones Rachas de viento máximas Velocidades máximas media en intervalos de 10 minutos

Datos horarios

Fecha y hora oficial Temperatura (ºC) Velocidad del viento (km/h) Dirección del viento Racha (km/h) Dirección de racha Precipitación (mm) Presión (hPa) Tendencia (hPa) Humedad (%)
2020-07-10 23:00:00 13.7 3 Sudoeste 9 Oeste 0.8 -- -- 100
2020-07-10 22:00:00 13.7 6 Oeste 13 Oeste 1 -- -- 100
2020-07-10 21:00:00 14.3 13 Oeste 19 Oeste 0 -- -- 99
2020-07-10 20:00:00 15.3 15 Oeste 20 Sudoeste 0 -- -- 97
2020-07-10 19:00:00 16.2 14 Sudoeste 23 Oeste 0 -- -- 93
2020-07-10 18:00:00 16.6 14 Oeste 22 Oeste 0 -- -- 92
2020-07-10 17:00:00 17.8 15 Oeste 27 Sudoeste 0 -- -- 90
2020-07-10 16:00:00 17.1 17 Oeste 24 Oeste 0 -- -- 91
2020-07-10 15:00:00 17.4 13 Oeste 23 Oeste 0 -- -- 93
2020-07-10 14:00:00 16.7 13 Oeste 20 Oeste 0 -- -- 94
2020-07-10 13:00:00 17.2 14 Oeste 20 Oeste 0 -- -- 90
2020-07-10 12:00:00 17.7 5 Oeste 10 Oeste 0 -- -- 91
2020-07-10 11:00:00 15.8 6 Oeste 18 Oeste 0 -- -- 100
2020-07-10 10:00:00 14.1 15 Oeste 24 Oeste 0 -- -- 100
2020-07-10 09:00:00 14.7 11 Oeste 19 Oeste 0.2 -- -- 100
2020-07-10 08:00:00 14.4 14 Oeste 21 Oeste 0 -- -- 100
2020-07-10 07:00:00 14.7 12 Oeste 16 Oeste 0 -- -- 100
2020-07-10 06:00:00 14.9 13 Oeste 21 Oeste 0 -- -- 100
2020-07-10 05:00:00 15.2 14 Oeste 19 Oeste 0.2 -- -- 100
2020-07-10 04:00:00 15.8 14 Oeste 17 Sudoeste 0 -- -- 100
2020-07-10 03:00:00 16.7 2 Noroeste 10 Sur 0 -- -- 99
2020-07-10 02:00:00 17 3 Sur 8 Sur 0 -- -- 98
2020-07-10 01:00:00 17.1 6 Sur 12 Sudoeste 0 -- -- 97
2020-07-10 00:00:00 17.1 6 Noroeste 12 Noroeste 0 -- -- 97
2020-07-09 23:00:00 17.2 5 Noroeste 9 Noroeste 0 -- -- 97
2020-07-09 22:00:00 17.3 0 Calma 15 Sudeste 0 -- -- 96
2020-07-09 21:00:00 17.9 7 Sudeste 12 Sudeste 0 -- -- 94
2020-07-09 20:00:00 17.9 9 Sudoeste 21 Sudoeste 0 -- -- 92
2020-07-09 19:00:00 18.7 16 Oeste 22 Oeste 0 -- -- 86
2020-07-09 18:00:00 19.5 10 Oeste 20 Oeste 0 -- -- 83
2020-07-09 17:00:00 19.8 13 Oeste 18 Oeste 0 -- -- 86
2020-07-09 16:00:00 19.7 16 Oeste 24 Oeste 0 -- -- 88
2020-07-09 15:00:00 19.9 18 Oeste 27 Oeste 0 -- -- 86
2020-07-09 14:00:00 22.3 11 Oeste 19 Oeste 0 -- -- 79
2020-07-09 13:00:00 21 14 Oeste 23 Sudoeste 0 -- -- 83
2020-07-09 12:00:00 22.5 12 Noroeste 19 Norte 0 -- -- 80
2020-07-09 11:00:00 21.3 9 Oeste 17 Noroeste 0 -- -- 87
2020-07-09 10:00:00 18.7 3 Oeste 6 Oeste 0 -- -- 96
2020-07-09 09:00:00 17.8 3 Nordeste 6 Nordeste 0 -- -- 100
2020-07-09 08:00:00 16.4 3 Oeste 10 Oeste 0 -- -- 100
2020-07-09 07:00:00 16.4 5 Oeste 10 Oeste 0 -- -- 100
2020-07-09 06:00:00 16.4 9 Oeste 14 Noroeste 0 -- -- 100
2020-07-09 05:00:00 16.4 7 Oeste 12 Oeste 0 -- -- 100
2020-07-09 04:00:00 16.6 0 Calma 10 Sur 0 -- -- 99
2020-07-09 03:00:00 16.5 6 Sudeste 15 Sudeste 0 -- -- 99
2020-07-09 02:00:00 16.4 4 Sudeste 15 Oeste 0 -- -- 98
2020-07-09 01:00:00 16.6 6 Oeste 9 Oeste 0 -- -- 94
2020-07-09 00:00:00 17 5 Sudoeste 13 Este 0 -- -- 93
2020-07-08 23:00:00 17.3 8 Sudeste 14 Sudeste 0 -- -- 92
2020-07-08 22:00:00 17.7 4 Sur 15 Sudeste 0 -- -- 88
2020-07-08 21:00:00 18.3 5 Sur 14 Este 0 -- -- 89
2020-07-08 20:00:00 18.8 11 Sudeste 23 Este 0 -- -- 85
2020-07-08 19:00:00 19.9 3 Oeste 15 Este 0 -- -- 85
2020-07-08 18:00:00 21.1 5 Este 13 Este 0 -- -- 85
2020-07-08 17:00:00 21.5 4 Sur 22 Este 0 -- -- 82
2020-07-08 16:00:00 21.8 12 Sudeste 28 Este 0 -- -- 80
2020-07-08 15:00:00 25.4 6 Sudeste 26 Este 0 -- -- 68
2020-07-08 14:00:00 25.3 5 Este 18 Sudeste 0 -- -- 70
2020-07-08 13:00:00 23.4 5 Sudeste 14 Sudeste 0 -- -- 73
2020-07-08 12:00:00 21.7 6 Sur 17 Sudeste 0 -- -- 73
2020-07-08 11:00:00 20.4 6 Sur 17 Sudeste 0 -- -- 79
2020-07-08 10:00:00 18.1 4 Sudeste 13 Este 0 -- -- 90
2020-07-08 09:00:00 16.3 3 Nordeste 5 Oeste 0 -- -- 97
2020-07-08 08:00:00 15.5 2 Sudeste 9 Sudeste 0 -- -- 98
2020-07-08 07:00:00 15.2 5 Sudeste 8 Sudeste 0 -- -- 97
2020-07-08 06:00:00 15.3 0 Calma 6 Este 0 -- -- 97
2020-07-08 05:00:00 15.3 5 Sudeste 9 Sudeste 0 -- -- 97
2020-07-08 04:00:00 15.4 4 Sudeste 12 Sudeste 0 -- -- 96
2020-07-08 03:00:00 15.7 3 Sudeste 5 Sudeste 0 -- -- 96
2020-07-08 02:00:00 15.7 4 Sudeste 12 Sudeste 0 -- -- 96
2020-07-08 01:00:00 15.7 7 Sudeste 12 Sudeste 0 -- -- 96
2020-07-08 00:00:00 15.9 5 Sudeste 12 Sudeste 0 -- -- 96
2020-07-07 23:00:00 16 8 Sudeste 21 Este 0 -- -- 95
2020-07-07 22:00:00 16.3 9 Este 20 Este 0 -- -- 93
2020-07-07 21:00:00 17.1 10 Sudeste 26 Este 0 -- -- 88
2020-07-07 20:00:00 19.4 14 Este 27 Este 0 -- -- 79
2020-07-07 19:00:00 22.6 16 Este 29 Sudeste 0 -- -- 72
2020-07-07 18:00:00 23.6 18 Este 28 Este 0 -- -- 66
2020-07-07 17:00:00 25.3 14 Este 26 Este 0 -- -- 67
2020-07-07 16:00:00 25.4 13 Este 24 Este 0 -- -- 68
2020-07-07 15:00:00 25.3 11 Este 20 Este 0 -- -- 67
2020-07-07 14:00:00 23.8 8 Este 21 Este 0 -- -- 68
2020-07-07 13:00:00 21.7 4 Norte 14 Sudeste 0 -- -- 72
2020-07-07 12:00:00 19.5 5 Este 15 Sudeste 0 -- -- 72
2020-07-07 11:00:00 17.7 7 Sudeste 25 Este 0 -- -- 79
2020-07-07 10:00:00 14.9 8 Este 26 Sudeste 0 -- -- 88
2020-07-07 09:00:00 13.6 10 Este 30 Sudeste 0 -- -- 90
2020-07-07 08:00:00 13.2 10 Sudeste 21 Sudeste 0 -- -- 91
2020-07-07 07:00:00 12.5 8 Sudeste 29 Este 0 -- -- 92
2020-07-07 06:00:00 12.6 12 Este 31 Este 0 -- -- 93
2020-07-07 05:00:00 12.8 12 Este 31 Este 0 -- -- 95
2020-07-07 04:00:00 13 11 Este 26 Este 0 -- -- 97
2020-07-07 03:00:00 13.2 11 Este 28 Este 0 -- -- 99
2020-07-07 02:00:00 13.4 11 Este 25 Sudeste 0 -- -- 100
2020-07-07 01:00:00 13.7 10 Sudeste 18 Este 0 -- -- 99
2020-07-07 00:00:00 13.8 8 Este 24 Sudeste 0 -- -- 99
2020-07-06 23:00:00 13.9 10 Este 29 Nordeste 0 -- -- 98
2020-07-06 22:00:00 14.3 11 Sudeste 27 Este 0 -- -- 97
2020-07-06 21:00:00 14.9 13 Este 31 Este 0 -- -- 95
2020-07-06 20:00:00 15.6 14 Este 29 Este 0 -- -- 92
2020-07-06 19:00:00 16 12 Sudeste 26 Este 0 -- -- 90
2020-07-06 18:00:00 16.6 14 Este 31 Este 0 -- -- 89
2020-07-06 17:00:00 17.9 17 Este 33 Este 0 -- -- 85
2020-07-06 16:00:00 18.4 13 Este 27 Este 0 -- -- 84
2020-07-06 15:00:00 19.5 14 Sudeste 29 Sudeste 0 -- -- 82
2020-07-06 14:00:00 20.2 14 Sudeste 26 Este 0 -- -- 81
2020-07-06 13:00:00 20.7 9 Este 19 Sudeste 0 -- -- 83
2020-07-06 12:00:00 19.6 8 Sudeste 25 Este 0 -- -- 87
2020-07-06 11:00:00 19.1 11 Sudeste 22 Sudeste 0 -- -- 95
2020-07-06 10:00:00 18.2 3 Nordeste 6 Nordeste 0 -- -- 100
2020-07-06 09:00:00 16.4 0 Calma 3 Sudoeste 0 -- -- 100
2020-07-06 08:00:00 15.9 0 Calma 7 Sudoeste 0 -- -- 100
2020-07-06 07:00:00 15.7 5 Sudoeste 7 Sudoeste 0 -- -- 100
2020-07-06 06:00:00 15.7 5 Oeste 12 Oeste 0 -- -- 100
2020-07-06 05:00:00 15.7 8 Oeste 15 Sudoeste 0 -- -- 100
2020-07-06 04:00:00 15.8 6 Oeste 10 Oeste 0 -- -- 100
2020-07-06 03:00:00 16 3 Sudoeste 9 Oeste 0 -- -- 99
2020-07-06 02:00:00 16.1 6 Sudoeste 10 Sudoeste 0 -- -- 98
2020-07-06 01:00:00 16.2 8 Oeste 16 Oeste 0 -- -- 98
2020-07-06 00:00:00 16.4 10 Oeste 16 Oeste 0 -- -- 97
2020-07-05 23:00:00 16.9 11 Oeste 21 Oeste 0 -- -- 97
2020-07-05 22:00:00 17.5 16 Oeste 22 Oeste 0 -- -- 95
2020-07-05 21:00:00 19.3 8 Oeste 17 Oeste 0 -- -- 89
2020-07-05 20:00:00 20.2 15 Oeste 21 Sudoeste 0 -- -- 85
2020-07-05 19:00:00 22.9 10 Oeste 17 Sudoeste 0 -- -- 79
2020-07-05 18:00:00 22.7 14 Oeste 22 Oeste 0 -- -- 78
2020-07-05 17:00:00 24 15 Oeste 26 Oeste 0 -- -- 74
2020-07-05 16:00:00 24.7 14 Oeste 24 Oeste 0 -- -- 72
2020-07-05 15:00:00 24.6 15 Oeste 23 Oeste 0 -- -- 71
2020-07-05 14:00:00 26.2 11 Noroeste 16 Oeste 0 -- -- 70
2020-07-05 13:00:00 26 3 Sudeste 10 Este 0 -- -- 66
2020-07-05 12:00:00 24 3 Sudeste 10 Nordeste 0 -- -- 71
2020-07-05 11:00:00 21.4 2 Oeste 9 Este 0 -- -- 81
2020-07-05 10:00:00 18.4 0 Calma 7 Nordeste 0 -- -- 92
2020-07-05 09:00:00 16.3 2 Este 5 Este 0 -- -- 98
2020-07-05 08:00:00 15.3 2 Este 5 Noroeste 0 -- -- 99
2020-07-05 07:00:00 14.4 5 Sudoeste 8 Sudoeste 0 -- -- 98
2020-07-05 06:00:00 14.8 0 Calma 6 Sur 0 -- -- 98
2020-07-05 05:00:00 15.1 0 Calma 5 Sudeste 0 -- -- 96
2020-07-05 04:00:00 15 5 Sudoeste 7 Sudoeste 0 -- -- 97
2020-07-05 03:00:00 15.2 3 Sudeste 5 Sudeste 0 -- -- 96
2020-07-05 02:00:00 15.4 3 Sudeste 5 Sudoeste 0 -- -- 95
2020-07-05 01:00:00 15.6 4 Sudoeste 9 Sudeste 0 -- -- 93
2020-07-05 00:00:00 16.3 6 Sudeste 9 Sudeste 0 -- -- 92
2020-07-04 23:00:00 17.2 6 Sudeste 11 Sudeste 0 -- -- 88
2020-07-04 22:00:00 18.3 6 Sudeste 18 Oeste 0 -- -- 75
2020-07-04 21:00:00 19.6 14 Oeste 25 Oeste 0 -- -- 69
2020-07-04 20:00:00 23.7 15 Oeste 21 Oeste 0 -- -- 65
2020-07-04 19:00:00 25.5 9 Oeste 21 Oeste 0 -- -- 61
2020-07-04 18:00:00 25.8 10 Oeste 19 Oeste 0 -- -- 64
2020-07-04 17:00:00 25.6 11 Oeste 17 Oeste 0 -- -- 64
2020-07-04 16:00:00 24.7 13 Oeste 23 Oeste 0 -- -- 64
2020-07-04 15:00:00 25.1 8 Noroeste 13 Noroeste 0 -- -- 51
2020-07-04 14:00:00 24.4 5 Norte 12 Noroeste 0 -- -- 59
2020-07-04 13:00:00 22.8 4 Oeste 10 Noroeste 0 -- -- 66
2020-07-04 12:00:00 20.6 2 Sudoeste 9 Este 0 -- -- 70
2020-07-04 11:00:00 17.8 4 Este 9 Este 0 -- -- 88
2020-07-04 10:00:00 14.2 3 Nordeste 9 Nordeste 0 -- -- 100
2020-07-04 09:00:00 11.5 0 Calma 5 Oeste 0 -- -- 100
2020-07-04 08:00:00 10.7 0 Calma 6 Sudeste 0 -- -- 100
2020-07-04 07:00:00 10.4 4 Este 6 Sudeste 0 -- -- 100
2020-07-04 06:00:00 10.9 0 Calma 5 Este 0 -- -- 100
2020-07-04 05:00:00 11.7 2 Oeste 4 Sur 0 -- -- 100
2020-07-04 04:00:00 11.9 5 Sudoeste 8 Sudeste 0 -- -- 100
2020-07-04 03:00:00 12.6 0 Calma 3 Oeste 0 -- -- 98
2020-07-04 02:00:00 13.2 0 Calma 6 Sudeste 0 -- -- 97
2020-07-04 01:00:00 13.8 5 Sudeste 10 Sudeste 0 -- -- 96
2020-07-04 00:00:00 14 6 Sudeste 12 Sudeste 0 -- -- 96
2020-07-03 23:00:00 14.1 8 Sudeste 13 Sudeste 0 -- -- 95
2020-07-03 22:00:00 14.5 6 Este 16 Este 0 -- -- 93
2020-07-03 21:00:00 15.1 6 Sudeste 17 Sudeste 0 -- -- 90
2020-07-03 20:00:00 15.8 2 Sudeste 8 Sudeste 0 -- -- 89
2020-07-03 19:00:00 15.9 5 Sudeste 12 Sudeste 0 -- -- 87
2020-07-03 18:00:00 16.9 3 Sudoeste 9 Norte 0 -- -- 83
2020-07-03 17:00:00 17.9 6 Oeste 13 Oeste 0 -- -- 79
2020-07-03 16:00:00 18.9 6 Oeste 18 Oeste 0 -- -- 77
2020-07-03 15:00:00 19.2 12 Oeste 22 Oeste 0 -- -- 73
2020-07-03 14:00:00 18.3 13 Oeste 22 Oeste 0 -- -- 75
2020-07-03 13:00:00 17.1 9 Oeste 17 Oeste 0 -- -- 79
2020-07-03 12:00:00 17.4 5 Oeste 11 Oeste 0 -- -- 82
2020-07-03 11:00:00 17 6 Norte 12 Norte 0 -- -- 91
2020-07-03 10:00:00 14.3 4 Oeste 8 Sudoeste 0 -- -- 100
2020-07-03 09:00:00 12.7 3 Sudeste 6 Sudeste 0 -- -- 100
2020-07-03 08:00:00 11.5 0 Calma 2 Sudoeste 0 -- -- 100
2020-07-03 07:00:00 11.1 0 Calma 3 Oeste 0 -- -- 100
2020-07-03 06:00:00 11 2 Sudeste 3 Este 0 -- -- 100
2020-07-03 05:00:00 11.2 0 Calma 6 Oeste 0 -- -- 100
2020-07-03 04:00:00 11.3 4 Oeste 7 Noroeste 0 -- -- 100
2020-07-03 03:00:00 11.2 6 Oeste 8 Oeste 0.2 -- -- 100
2020-07-03 02:00:00 11.2 0 Calma 10 Sudoeste 0 -- -- 100
2020-07-03 01:00:00 11.4 8 Sudoeste 10 Sudoeste 0 -- -- 100
2020-07-03 00:00:00 11.8 2 Noroeste 6 Noroeste 0 -- -- 100
2020-07-02 23:00:00 11.8 4 Noroeste 15 Sudoeste 0.4 -- -- 100
2020-07-02 22:00:00 11.9 8 Oeste 11 Oeste 0.6 -- -- 100
2020-07-02 21:00:00 12.4 3 Nordeste 23 Oeste 0 -- -- 100
2020-07-02 20:00:00 12.4 11 Oeste 20 Oeste 0.8 -- -- 99
2020-07-02 19:00:00 12.9 3 Oeste 15 Oeste 0.4 -- -- 99
2020-07-02 18:00:00 12.7 12 Oeste 23 Oeste 0.2 -- -- 98
2020-07-02 17:00:00 12.9 12 Noroeste 23 Noroeste 0.6 -- -- 98
2020-07-02 16:00:00 13.9 12 Oeste 24 Noroeste 0 -- -- 96
2020-07-02 15:00:00 14.6 15 Noroeste 21 Noroeste 0 -- -- 88
2020-07-02 14:00:00 15.5 3 Sudoeste 21 Sudoeste 0 -- -- 88
2020-07-02 13:00:00 13.7 17 Oeste 23 Oeste 0.2 -- -- 95
2020-07-02 12:00:00 13.7 8 Oeste 21 Oeste 0 -- -- 98
2020-07-02 11:00:00 13.3 10 Sudoeste 19 Oeste 0 -- -- 100
2020-07-02 10:00:00 12.4 14 Noroeste 29 Norte 0 -- -- 100
2020-07-02 09:00:00 12.8 11 Noroeste 31 Norte 0.4 -- -- 100
2020-07-02 08:00:00 12.4 5 Oeste 14 Oeste 0.2 -- -- 100
2020-07-02 07:00:00 12.3 10 Oeste 15 Oeste 0.2 -- -- 100
2020-07-02 06:00:00 12.4 12 Noroeste 17 Noroeste 0 -- -- 100
2020-07-02 05:00:00 12.6 9 Noroeste 17 Noroeste 0 -- -- 100
2020-07-02 04:00:00 12.7 12 Oeste 19 Oeste 0 -- -- 100
2020-07-02 03:00:00 13.2 9 Sudoeste 13 Oeste 0 -- -- 100
2020-07-02 02:00:00 13.3 9 Sudoeste 15 Oeste 0 -- -- 100
2020-07-02 01:00:00 13.5 9 Oeste 14 Oeste 0.2 -- -- 100
2020-07-02 00:00:00 13.6 12 Oeste 17 Oeste 0.2 -- -- 100
2020-07-01 23:00:00 13.9 13 Oeste 17 Sudoeste 0.2 -- -- 100
2020-07-01 22:00:00 14.1 11 Oeste 15 Sudoeste 0 -- -- 99
2020-07-01 21:00:00 14.6 12 Oeste 18 Oeste 0 -- -- 98
2020-07-01 20:00:00 14.9 12 Oeste 22 Oeste 0 -- -- 97
2020-07-01 19:00:00 15.3 15 Oeste 27 Oeste 0 -- -- 96
2020-07-01 18:00:00 15.9 18 Oeste 24 Oeste 0 -- -- 97
2020-07-01 17:00:00 15.9 14 Oeste 23 Oeste 0.2 -- -- 99
2020-07-01 16:00:00 16.3 13 Oeste 19 Oeste 0.2 -- -- 98
2020-07-01 15:00:00 17.6 5 Oeste 15 Oeste 0 -- -- 93
2020-07-01 14:00:00 18.8 9 Sudoeste 17 Oeste 0 -- -- 88
2020-07-01 13:00:00 19.5 7 Oeste 15 Sudoeste 0 -- -- 88
2020-07-01 12:00:00 18.7 7 Oeste 12 Oeste 0 -- -- 91
2020-07-01 11:00:00 18.9 5 Oeste 9 Noroeste 0 -- -- 91
2020-07-01 10:00:00 17.2 4 Sudoeste 10 Sudoeste 0 -- -- 97
2020-07-01 09:00:00 16.6 8 Oeste 14 Oeste 0 -- -- 97
2020-07-01 08:00:00 17 0 Calma 6 Oeste 0 -- -- 97
2020-07-01 07:00:00 16.8 5 Oeste 8 Oeste 0 -- -- 98
2020-07-01 06:00:00 16.7 6 Oeste 9 Oeste 0 -- -- 98
2020-07-01 05:00:00 16.9 3 Sudoeste 5 Sur 0 -- -- 97
2020-07-01 04:00:00 17.1 0 Calma 6 Noroeste 0 -- -- 95
2020-07-01 03:00:00 17 0 Calma 6 Noroeste 0 -- -- 97
2020-07-01 02:00:00 16.9 5 Noroeste 12 Noroeste 0 -- -- 99
2020-07-01 01:00:00 16.9 7 Oeste 12 Oeste 0 -- -- 99
2020-07-01 00:00:00 16.7 9 Oeste 17 Sudoeste 0 -- -- 99
2020-06-30 23:00:00 16.7 9 Sudeste 14 Sudeste 0.2 -- -- 97
2020-06-30 22:00:00 17.3 3 Sudoeste 14 Este 0 -- -- 97
2020-06-30 21:00:00 17.6 10 Sur 18 Sudeste 0.2 -- -- 95
2020-06-30 20:00:00 17.8 6 Noroeste 24 Oeste 0 -- -- 92
2020-06-30 19:00:00 19.7 4 Noroeste 18 Oeste 0 -- -- 84
2020-06-30 18:00:00 22.3 14 Oeste 23 Oeste 0 -- -- 75
2020-06-30 17:00:00 26.9 7 Oeste 17 Noroeste 0 -- -- 69
2020-06-30 16:00:00 26.6 8 Sudeste 17 Sudeste 0 -- -- 67
2020-06-30 15:00:00 26.3 9 Sudeste 15 Sudeste 0 -- -- 63
2020-06-30 14:00:00 24.3 3 Sur 12 Sudeste 0 -- -- 62
2020-06-30 13:00:00 22.4 6 Sudeste 10 Sur 0 -- -- 71
2020-06-30 12:00:00 21.7 3 Sur 10 Este 0 -- -- 66
2020-06-30 11:00:00 19.6 3 Este 9 Nordeste 0 -- -- 91
2020-06-30 10:00:00 15.6 3 Sudoeste 5 Sudoeste 0 -- -- 100
2020-06-30 09:00:00 13.7 2 Este 5 Este 0 -- -- 100
2020-06-30 08:00:00 12.4 0 Calma 5 Este 0 -- -- 100
2020-06-30 07:00:00 11.9 0 Calma 5 Sudoeste 0 -- -- 100
2020-06-30 06:00:00 12.5 3 Sudeste 6 Sur 0 -- -- 100
2020-06-30 05:00:00 12.9 2 Sudeste 5 Sudeste 0.2 -- -- 100
2020-06-30 04:00:00 13.2 0 Calma 4 Sudeste 0 -- -- 100
2020-06-30 03:00:00 13.6 0 Calma 4 Nordeste 0 -- -- 100
2020-06-30 02:00:00 14.1 0 Calma 6 Oeste 0 -- -- 100
2020-06-30 01:00:00 14.8 2 Oeste 3 Oeste 0 -- -- 100
2020-06-30 00:00:00 15 0 Calma 9 Sur 0 -- -- 100
2020-06-29 23:00:00 15.4 2 Sudeste 8 Sudeste 0 -- -- 99
2020-06-29 22:00:00 15.8 3 Sudoeste 8 Sudoeste 0 -- -- 99
2020-06-29 21:00:00 16.3 7 Oeste 10 Oeste 0 -- -- 96
2020-06-29 20:00:00 17.6 0 Calma 6 Oeste 0 -- -- 94
2020-06-29 19:00:00 18.1 3 Oeste 7 Oeste 0 -- -- 92
2020-06-29 18:00:00 18.8 3 Este 10 Este 0 -- -- 91
2020-06-29 17:00:00 17.8 4 Sudoeste 8 Oeste 0 -- -- 92
2020-06-29 16:00:00 17.4 5 Sudoeste 12 Oeste 0 -- -- 93
2020-06-29 15:00:00 17.1 7 Oeste 17 Oeste 0 -- -- 94
2020-06-29 14:00:00 18 5 Sudeste 13 Oeste 0.2 -- -- 93
2020-06-29 13:00:00 17.8 9 Oeste 14 Oeste 0 -- -- 91
2020-06-29 12:00:00 17.4 6 Oeste 13 Oeste 0 -- -- 96
2020-06-29 11:00:00 16.1 8 Oeste 14 Oeste 0 -- -- 100
2020-06-29 10:00:00 16.1 3 Nordeste 6 Nordeste 0 -- -- 100
2020-06-29 09:00:00 14.5 5 Oeste 14 Oeste 0 -- -- 100
2020-06-29 08:00:00 13.9 10 Oeste 13 Oeste 0 -- -- 100
2020-06-29 07:00:00 13.9 7 Oeste 11 Oeste 0 -- -- 100
2020-06-29 06:00:00 13.9 9 Oeste 14 Oeste 0 -- -- 100
2020-06-29 05:00:00 13.9 11 Oeste 18 Oeste 0 -- -- 100
2020-06-29 04:00:00 14 11 Oeste 19 Sudoeste 0 -- -- 100
2020-06-29 03:00:00 14.3 11 Oeste 21 Oeste 0 -- -- 100
2020-06-29 02:00:00 14.6 12 Oeste 17 Oeste 0.2 -- -- 100
2020-06-29 01:00:00 15.2 10 Oeste 17 Oeste 0 -- -- 100
2020-06-29 00:00:00 15.6 10 Oeste 13 Oeste 0 -- -- 100
2020-06-28 23:00:00 16 8 Oeste 13 Noroeste 0.6 -- -- 100
2020-06-28 22:00:00 16.3 5 Noroeste 9 Noroeste 0.8 -- -- 100
2020-06-28 21:00:00 16.3 7 Oeste 14 Oeste 0.8 -- -- 100
2020-06-28 20:00:00 16.5 9 Oeste 14 Sudoeste 0.4 -- -- 98
2020-06-28 19:00:00 17.2 12 Oeste 21 Oeste 0 -- -- 92
2020-06-28 18:00:00 18.2 20 Oeste 28 Oeste 0 -- -- 85
2020-06-28 17:00:00 20.2 13 Oeste 27 Sudoeste 0 -- -- 79
2020-06-28 16:00:00 22.2 16 Oeste 23 Oeste 0 -- -- 73
2020-06-28 15:00:00 24.2 14 Norte 24 Noroeste 0 -- -- 67
2020-06-28 14:00:00 23 10 Norte 26 Norte 0 -- -- 78
2020-06-28 13:00:00 23.6 10 Norte 27 Oeste 0 -- -- 73
2020-06-28 12:00:00 22.4 10 Oeste 18 Norte 0 -- -- 72
2020-06-28 11:00:00 20.3 4 Este 9 Nordeste 0 -- -- 92
2020-06-28 10:00:00 17.9 3 Noroeste 8 Norte 0 -- -- 100
2020-06-28 09:00:00 16.1 2 Nordeste 5 Nordeste 0 -- -- 100
2020-06-28 08:00:00 15 0 Calma 4 Norte 0 -- -- 100
2020-06-28 07:00:00 14.5 2 Sudeste 10 Este 0 -- -- 100
2020-06-28 06:00:00 14.4 2 Sudeste 5 Sudoeste 0 -- -- 100
2020-06-28 05:00:00 14.3 6 Sudoeste 9 Sudoeste 0.2 -- -- 100
2020-06-28 04:00:00 14.5 6 Sudoeste 8 Sudoeste 0 -- -- 100
2020-06-28 03:00:00 14.7 6 Sudeste 10 Este 0 -- -- 100
2020-06-28 02:00:00 14.5 4 Sudoeste 10 Sudoeste 0.2 -- -- 100
2020-06-28 01:00:00 14.6 9 Sudoeste 12 Sudoeste 0.2 -- -- 100
2020-06-28 00:00:00 14.8 6 Sudoeste 13 Sudoeste 0 -- -- 100
2020-06-27 23:00:00 14.9 5 Sudoeste 17 Oeste 0 -- -- 100
2020-06-27 22:00:00 15.2 13 Sudoeste 22 Oeste 0 -- -- 98
2020-06-27 21:00:00 15.9 14 Oeste 24 Oeste 0 -- -- 95
2020-06-27 20:00:00 17.2 18 Oeste 26 Oeste 0 -- -- 90
2020-06-27 19:00:00 22.8 12 Oeste 24 Oeste 0 -- -- 74
2020-06-27 18:00:00 23.9 5 Oeste 24 Oeste 0 -- -- 75
2020-06-27 17:00:00 24 11 Oeste 21 Oeste 0 -- -- 77
2020-06-27 16:00:00 22.8 14 Oeste 22 Oeste 0 -- -- 70
2020-06-27 15:00:00 21.7 6 Noroeste 19 Nordeste 0 -- -- 74
2020-06-27 14:00:00 25.4 4 Sudeste 12 Sur 0 -- -- 68
2020-06-27 13:00:00 23.2 2 Nordeste 10 Noroeste 0 -- -- 75
2020-06-27 12:00:00 21.6 3 Oeste 11 Este 0 -- -- 81
2020-06-27 11:00:00 19.3 7 Sudoeste 12 Oeste 0 -- -- 89
2020-06-27 10:00:00 17.9 0 Calma 5 Este 0 -- -- 100
2020-06-27 09:00:00 15.4 3 Sudoeste 16 Sudeste 0 -- -- 100
2020-06-27 08:00:00 14.6 11 Sudeste 18 Este 0 -- -- 100
2020-06-27 07:00:00 14.2 0 Calma 6 Oeste 0 -- -- 100
2020-06-27 06:00:00 14.4 3 Sudoeste 6 Oeste 0 -- -- 100
2020-06-27 05:00:00 14.5 5 Sudoeste 8 Sudeste 0 -- -- 100
2020-06-27 04:00:00 14.8 3 Sudeste 7 Sudeste 0 -- -- 100
2020-06-27 03:00:00 15.1 6 Sudeste 9 Sudeste 0 -- -- 99
2020-06-27 02:00:00 15.8 4 Sudoeste 6 Sudoeste 0 -- -- 99
2020-06-27 01:00:00 16.2 0 Calma 5 Sudoeste 0 -- -- 97
2020-06-27 00:00:00 16.7 0 Calma -- -- 0 -- -- 96
2020-06-26 23:00:00 17 3 Sur 13 Sudeste 0 -- -- 93
2020-06-26 22:00:00 18 12 Sudeste 14 Sudeste 0 -- -- 88
2020-06-26 21:00:00 21.9 6 Sudeste 9 Sudeste 0 -- -- 75
2020-06-26 20:00:00 22.5 5 Sudeste 11 Sudeste 0 -- -- 75
2020-06-26 19:00:00 21.2 7 Sur 18 Sudeste 0 -- -- 83
2020-06-26 18:00:00 20.8 10 Sudeste 18 Este 0 -- -- 81
2020-06-26 17:00:00 21.6 4 Sudeste 12 Sudeste 0 -- -- 81
2020-06-26 16:00:00 22.1 4 Sudeste 16 Sudeste 0 -- -- 76
2020-06-26 15:00:00 18.9 3 Sudeste 12 Oeste 0 -- -- 91
2020-06-26 14:00:00 17.3 8 Oeste 11 Oeste 0 -- -- 94
2020-06-26 13:00:00 16.9 0 Calma 8 Sudeste 0 -- -- 98
2020-06-26 12:00:00 16.8 3 Sudeste 10 Este 0 -- -- 100
2020-06-26 11:00:00 15.8 5 Sudeste 9 Sudeste 0 -- -- 100
2020-06-26 10:00:00 14.7 4 Sudoeste 9 Oeste 0 -- -- 100
2020-06-26 09:00:00 14.1 6 Sudoeste 10 Oeste 0.2 -- -- 100
2020-06-26 08:00:00 13.6 8 Oeste 9 Oeste 0 -- -- 100
2020-06-26 07:00:00 13.4 8 Oeste 15 Oeste 0 -- -- 100
2020-06-26 06:00:00 13.6 11 Oeste 15 Oeste 0.2 -- -- 100
2020-06-26 05:00:00 13.9 6 Sudoeste 11 Sudoeste 0 -- -- 100
2020-06-26 04:00:00 14 9 Oeste 13 Oeste 0 -- -- 100
2020-06-26 03:00:00 14.2 9 Oeste 13 Oeste 0.2 -- -- 100
2020-06-26 02:00:00 14.6 5 Oeste 8 Oeste 0.2 -- -- 100
2020-06-26 01:00:00 14.6 4 Oeste 10 Oeste 0 -- -- 100
2020-06-26 00:00:00 14.5 6 Oeste 20 Oeste 0.6 -- -- 100
2020-06-25 23:00:00 14.9 10 Oeste 19 Noroeste 0 -- -- 100
2020-06-25 22:00:00 15.7 6 Noroeste 10 Noroeste 0.4 -- -- 99
2020-06-25 21:00:00 15.2 5 Sudeste 17 Noroeste 0.2 -- -- 100
2020-06-25 20:00:00 15.3 8 Noroeste 17 Oeste 0 -- -- 99
2020-06-25 19:00:00 16.2 5 Sudoeste 14 Sudeste 0 -- -- 97
2020-06-25 18:00:00 16 4 Norte 35 Noroeste 0 -- -- 100
2020-06-25 17:00:00 15.8 14 Oeste 27 Sudoeste 0 -- -- 96
2020-06-25 16:00:00 17.1 10 Oeste 15 Oeste 0 -- -- 91
2020-06-25 15:00:00 18.5 3 Nordeste 17 Sudeste 0 -- -- 90
2020-06-25 14:00:00 18.8 3 Oeste 11 Oeste 0 -- -- 88
2020-06-25 13:00:00 19.1 7 Noroeste 18 Noroeste 0 -- -- 85
2020-06-25 12:00:00 21.9 5 Noroeste 13 Oeste 0 -- -- 74
2020-06-25 11:00:00 19 4 Sudeste 14 Sudeste 0 -- -- 88
2020-06-25 10:00:00 16 5 Sudeste 17 Sudoeste 0 -- -- 98
2020-06-25 09:00:00 15.3 4 Sudoeste 13 Sudeste 0 -- -- 96
2020-06-25 08:00:00 15.2 2 Sudoeste 9 Sudoeste 0 -- -- 94
2020-06-25 07:00:00 14.9 3 Sudoeste 9 Sur 0 -- -- 94
2020-06-25 06:00:00 15.2 6 Oeste 9 Oeste 0 -- -- 92
2020-06-25 05:00:00 15.6 4 Noroeste 9 Noroeste 0 -- -- 91
2020-06-25 04:00:00 15.7 4 Oeste 17 Noroeste 0 -- -- 90
2020-06-25 03:00:00 16 15 Noroeste 26 Oeste 0 -- -- 88
2020-06-25 02:00:00 16.3 18 Oeste 39 Oeste 0 -- -- 87
2020-06-25 01:00:00 18.9 21 Sudeste 31 Sudeste 0 -- -- 88
2020-06-25 00:00:00 20.6 8 Sudeste 17 Sudeste 0 -- -- 79
2020-06-24 23:00:00 20.9 11 Noroeste 23 Noroeste 0 -- -- 79
2020-06-24 22:00:00 21.2 9 Sudoeste 12 Sudoeste 0 -- -- 77
2020-06-24 21:00:00 21 6 Oeste 24 Noroeste 0 -- -- 85
2020-06-24 20:00:00 21.8 4 Sudoeste 14 Sudeste 0 -- -- 85
2020-06-24 19:00:00 21 9 Nordeste 36 Noroeste 0 -- -- 88
2020-06-24 18:00:00 22.1 17 Noroeste 23 Noroeste 0 -- -- 84
2020-06-24 17:00:00 24.7 13 Oeste 25 Oeste 0 -- -- 81
2020-06-24 16:00:00 25.3 12 Oeste 18 Noroeste 0 -- -- 76
2020-06-24 15:00:00 27.2 11 Noroeste 17 Oeste 0 -- -- 72
2020-06-24 14:00:00 27 9 Oeste 16 Oeste 0 -- -- 73
2020-06-24 13:00:00 26.8 7 Oeste 13 Oeste 0 -- -- 70
2020-06-24 12:00:00 26.8 4 Nordeste 11 Sudeste 0 -- -- 73
2020-06-24 11:00:00 23.8 4 Noroeste 8 Norte 0 -- -- 78
2020-06-24 10:00:00 20.8 3 Nordeste 7 Este 0 -- -- 86
2020-06-24 09:00:00 18.8 4 Noroeste 13 Oeste 0 -- -- 92
2020-06-24 08:00:00 17.8 7 Oeste 12 Oeste 0 -- -- 87
2020-06-24 07:00:00 17.5 7 Sudoeste 13 Sudeste 0 -- -- 83
2020-06-24 06:00:00 20 5 Nordeste 9 Este 0 -- -- 72
2020-06-24 05:00:00 20.8 4 Oeste 9 Oeste 0 -- -- 68
2020-06-24 04:00:00 20.4 4 Sudoeste 6 Sudoeste 0 -- -- 75
2020-06-24 03:00:00 20.1 4 Sur 8 Nordeste 0 -- -- 79
2020-06-24 02:00:00 19.6 2 Sudoeste 16 Sudeste 0 -- -- 92
2020-06-24 01:00:00 19.3 4 Este 13 Sudeste 0 -- -- 94
2020-06-24 00:00:00 20.2 5 Sudeste 9 Sudeste 0 -- -- 91
2020-06-23 23:00:00 21.1 8 Sudeste 13 Sudeste 0 -- -- 87
2020-06-23 22:00:00 23.8 9 Sur 10 Sur 0 -- -- 77
2020-06-23 21:00:00 27 6 Sudeste 13 Sudeste 0 -- -- 67
2020-06-23 20:00:00 28.2 12 Sudeste 15 Sudeste 0 -- -- 65
2020-06-23 19:00:00 30.6 7 Sur 10 Sur 0 -- -- 60
2020-06-23 18:00:00 31.5 6 Oeste 14 Noroeste 0 -- -- 56
2020-06-23 17:00:00 31.9 9 Noroeste 13 Oeste 0 -- -- 54
2020-06-23 16:00:00 31 9 Oeste 15 Oeste 0 -- -- 48
2020-06-23 15:00:00 30.8 6 Noroeste 10 Oeste 0 -- -- 54
2020-06-23 14:00:00 29.5 3 Sudeste 10 Sudeste 0 -- -- 50
2020-06-23 13:00:00 27.7 7 Sudeste 12 Este 0 -- -- 65
2020-06-23 12:00:00 25.4 5 Sur 9 Este 0 -- -- 66
2020-06-23 11:00:00 22.5 0 Calma 6 Sudoeste 0 -- -- 83
2020-06-23 10:00:00 18.5 0 Calma 12 Sur 0 -- -- 94
2020-06-23 09:00:00 15.8 4 Este 9 Sudeste 0 -- -- 96
2020-06-23 08:00:00 14.6 3 Este 9 Sudeste 0 -- -- 100
2020-06-23 07:00:00 14 6 Sudeste 12 Este 0 -- -- 100
2020-06-23 06:00:00 14.7 4 Este 9 Este 0 -- -- 100
2020-06-23 05:00:00 15.4 0 Calma 3 Sudoeste 0 -- -- 100
2020-06-23 04:00:00 15.8 0 Calma 4 Oeste 0 -- -- 100
2020-06-23 03:00:00 16.2 3 Sudoeste 4 Sudoeste 0 -- -- 100
2020-06-23 02:00:00 16.3 0 Calma 4 Oeste 0 -- -- 99
2020-06-23 01:00:00 16.4 3 Sur 9 Sudeste 0 -- -- 98
2020-06-23 00:00:00 17 7 Sur 14 Sudeste 0 -- -- 97
2020-06-22 23:00:00 17.6 11 Sudeste 19 Sudeste 0 -- -- 94
2020-06-22 22:00:00 19.3 13 Sudeste 18 Sudeste 0 -- -- 84
2020-06-22 21:00:00 23.1 10 Sudeste 19 Este 0 -- -- 68
2020-06-22 20:00:00 24.8 12 Este 25 Este 0 -- -- 61
2020-06-22 19:00:00 25.4 15 Este 28 Este 0 -- -- 66
2020-06-22 18:00:00 26.5 13 Este 28 Este 0 -- -- 69
2020-06-22 17:00:00 27.6 13 Este 24 Este 0 -- -- 68
2020-06-22 16:00:00 27.6 14 Este 27 Este 0 -- -- 67
2020-06-22 15:00:00 27.2 12 Este 27 Este 0 -- -- 68
2020-06-22 14:00:00 26.4 10 Sudeste 21 Sudeste 0 -- -- 69
2020-06-22 13:00:00 24.9 8 Sudeste 25 Este 0 -- -- 71
2020-06-22 12:00:00 23 7 Sudeste 17 Sudeste 0 -- -- 77
2020-06-22 11:00:00 20.1 9 Sudeste 13 Sudeste 0 -- -- 85
2020-06-22 10:00:00 17.3 6 Este 14 Sudeste 0 -- -- 100
2020-06-22 09:00:00 15 6 Sudeste 15 Sudeste 0 -- -- 100
2020-06-22 08:00:00 14.1 5 Sudeste 16 Sudeste 0 -- -- 100
2020-06-22 07:00:00 13.2 11 Sudeste 15 Sudeste 0 -- -- 100
2020-06-22 06:00:00 13.6 5 Sudeste 12 Este 0 -- -- 100
2020-06-22 05:00:00 14 0 Calma 9 Sudeste 0 -- -- 100
2020-06-22 04:00:00 13.9 6 Sudeste 8 Sudeste 0 -- -- 100
2020-06-22 03:00:00 14.2 4 Sudoeste 12 Sudeste 0 -- -- 99
2020-06-22 02:00:00 14.7 8 Sudeste 12 Este 0 -- -- 98
2020-06-22 01:00:00 14.9 4 Sudoeste 7 Oeste 0 -- -- 97
2020-06-22 00:00:00 15.4 6 Sudoeste 9 Sudoeste 0 -- -- 95
2020-06-21 23:00:00 16 2 Sur 15 Sudoeste 0 -- -- 93
2020-06-21 22:00:00 16.6 12 Sudoeste 19 Sudoeste 0 -- -- 90
2020-06-21 21:00:00 18.3 3 Norte 13 Sudoeste 0 -- -- 82
2020-06-21 20:00:00 18.5 5 Sudoeste 18 Oeste 0 -- -- 79
2020-06-21 19:00:00 18.8 12 Oeste 17 Oeste 0 -- -- 77
2020-06-21 18:00:00 19.7 5 Oeste 12 Noroeste 0 -- -- 78
2020-06-21 17:00:00 20.4 6 Oeste 18 Norte 0 -- -- 75
2020-06-21 16:00:00 21.4 11 Noroeste 21 Norte 0 -- -- 69
2020-06-21 15:00:00 22.7 14 Noroeste 27 Noroeste 0 -- -- 67
2020-06-21 14:00:00 25 7 Noroeste 15 Oeste 0 -- -- 60
2020-06-21 13:00:00 24.3 7 Este 15 Sudeste 0 -- -- 73
2020-06-21 12:00:00 21.6 3 Sudoeste 8 Este 0 -- -- 74
2020-06-21 11:00:00 20.2 3 Nordeste 7 Noroeste 0 -- -- 76
2020-06-21 10:00:00 17.3 4 Norte 8 Norte 0 -- -- 87
2020-06-21 09:00:00 15.7 3 Noroeste 10 Oeste 0 -- -- 92
2020-06-21 08:00:00 14.7 6 Oeste 14 Oeste 0 -- -- 97
2020-06-21 07:00:00 14 7 Oeste 12 Oeste 0 -- -- 99
2020-06-21 06:00:00 13.7 10 Oeste 12 Oeste 0 -- -- 100
2020-06-21 05:00:00 13.1 4 Oeste 10 Sudeste 0 -- -- 100
2020-06-21 04:00:00 12.9 3 Sudeste 8 Este 0 -- -- 98
2020-06-21 03:00:00 13.3 4 Sudeste 6 Sudeste 0 -- -- 97
2020-06-21 02:00:00 13.6 0 Calma 10 Sudeste 0 -- -- 96
2020-06-21 01:00:00 13.9 11 Sudeste 13 Sudeste 0 -- -- 96
2020-06-21 00:00:00 14.4 4 Sudoeste 9 Sudeste 0 -- -- 93
2020-06-20 23:00:00 15.3 3 Este 10 Sudoeste 0 -- -- 91
2020-06-20 22:00:00 16.2 9 Sudoeste 14 Oeste 0 -- -- 88
2020-06-20 21:00:00 19.3 9 Oeste 14 Oeste 0 -- -- 77
2020-06-20 20:00:00 21.9 6 Oeste 15 Oeste 0 -- -- 71
2020-06-20 19:00:00 22.3 9 Oeste 20 Sudoeste 0 -- -- 71
2020-06-20 18:00:00 21.4 9 Oeste 13 Oeste 0 -- -- 79
2020-06-20 17:00:00 20.9 3 Noroeste 20 Oeste 0 -- -- 78
2020-06-20 16:00:00 20 12 Oeste 21 Oeste 0 -- -- 76
2020-06-20 15:00:00 20.4 15 Oeste 24 Oeste 0 -- -- 75
2020-06-20 14:00:00 22.3 12 Oeste 22 Oeste 0 -- -- 72
2020-06-20 13:00:00 21.9 11 Noroeste 16 Noroeste 0 -- -- 74
2020-06-20 12:00:00 20.9 4 Noroeste 10 Sudeste 0 -- -- 78
2020-06-20 11:00:00 18.2 3 Este 6 Nordeste 0 -- -- 96
2020-06-20 10:00:00 14.6 0 Calma 5 Sudoeste 0 -- -- 100
2020-06-20 09:00:00 12.6 3 Sur 8 Sudeste 0 -- -- 100
2020-06-20 08:00:00 12 3 Sudeste 10 Sudeste 0 -- -- 100
2020-06-20 07:00:00 11 0 Calma 4 Este 0 -- -- 100
2020-06-20 06:00:00 11.4 0 Calma 4 Sudoeste 0 -- -- 100
2020-06-20 05:00:00 11.8 0 Calma 3 Este 0 -- -- 100
2020-06-20 04:00:00 12 0 Calma 6 Este 0 -- -- 100
2020-06-20 03:00:00 12.5 5 Sudeste 7 Este 0 -- -- 100
2020-06-20 02:00:00 12.8 5 Este 6 Este 0 -- -- 99
2020-06-20 01:00:00 13.2 0 Calma 4 Norte 0 -- -- 99
2020-06-20 00:00:00 13.2 3 Noroeste 10 Sudeste 0 -- -- 99
2020-06-19 23:00:00 13.3 9 Sudeste 13 Sudeste 0 -- -- 97
2020-06-19 22:00:00 14.1 5 Sur 13 Sudoeste 0 -- -- 95
2020-06-19 21:00:00 14.7 11 Sudoeste 14 Sudoeste 0 -- -- 93
2020-06-19 20:00:00 16.2 7 Oeste 13 Oeste 0 -- -- 87
2020-06-19 19:00:00 18.5 3 Sudoeste 9 Sudoeste 0 -- -- 80
2020-06-19 18:00:00 18.1 3 Sudeste 10 Sudeste 0 -- -- 84
2020-06-19 17:00:00 17.2 6 Sudeste 16 Sudeste 0 -- -- 85
2020-06-19 16:00:00 16.5 6 Sudeste 17 Oeste 0 -- -- 87
2020-06-19 15:00:00 15.6 13 Oeste 17 Oeste 0 -- -- 85
2020-06-19 14:00:00 16.3 10 Oeste 15 Oeste 0 -- -- 83
2020-06-19 13:00:00 17.5 7 Oeste 12 Noroeste 0 -- -- 76
2020-06-19 12:00:00 17.3 0 Calma 7 Noroeste 0 -- -- 79
2020-06-19 11:00:00 15.5 0 Calma 5 Sudoeste 0 -- -- 84
2020-06-19 10:00:00 14.3 2 Norte 6 Oeste 0 -- -- 95
2020-06-19 09:00:00 12.8 2 Noroeste 6 Norte 0 -- -- 100
2020-06-19 08:00:00 11.3 2 Oeste 11 Oeste 0 -- -- 99
2020-06-19 07:00:00 11.2 10 Oeste 15 Oeste 0 -- -- 100
2020-06-19 06:00:00 10.9 7 Oeste 8 Oeste 0 -- -- 99
2020-06-19 05:00:00 11.4 3 Oeste 5 Oeste 0 -- -- 99
2020-06-19 04:00:00 11.9 3 Noroeste 5 Oeste 0 -- -- 99
2020-06-19 03:00:00 12.3 3 Oeste 4 Oeste 0 -- -- 99
2020-06-19 02:00:00 12.3 0 Calma 5 Sudeste 0 -- -- 98
2020-06-19 01:00:00 12.5 5 Sudeste 7 Sudeste 0 -- -- 97
2020-06-19 00:00:00 12.7 2 Sudeste 7 Sudeste 0 -- -- 96
2020-06-18 23:00:00 12.9 3 Sudeste 4 Sudeste 0 -- -- 94
2020-06-18 22:00:00 13.2 4 Este 5 Este 0 -- -- 92
2020-06-18 21:00:00 13.6 3 Sudoeste 9 Sudoeste 0 -- -- 92
2020-06-18 20:00:00 14.4 2 Sur 17 Este 0 -- -- 89
2020-06-18 19:00:00 15.4 8 Sudeste 18 Este 0 -- -- 87
2020-06-18 18:00:00 15.6 7 Sudeste 15 Este 0 -- -- 84
2020-06-18 17:00:00 17.1 8 Este 18 Este 0 -- -- 81
2020-06-18 16:00:00 18.9 4 Sur 18 Sudoeste 0 -- -- 73
2020-06-18 15:00:00 19.1 12 Oeste 23 Oeste 0 -- -- 72
2020-06-18 14:00:00 18 12 Oeste 20 Oeste 0 -- -- 74
2020-06-18 13:00:00 16.7 7 Oeste 17 Oeste 0 -- -- 76
2020-06-18 12:00:00 16 6 Oeste 13 Sudoeste 0 -- -- 80
2020-06-18 11:00:00 15.3 2 Norte 8 Sur 0.2 -- -- 96
2020-06-18 10:00:00 13.5 4 Sudeste 9 Sudeste 0 -- -- 100
2020-06-18 09:00:00 11.6 3 Oeste 6 Oeste 0 -- -- 100
2020-06-18 08:00:00 10.8 5 Oeste 6 Oeste 0 -- -- 100
2020-06-18 07:00:00 10.5 0 Calma 3 Sudoeste 0 -- -- 100
2020-06-18 06:00:00 10.5 3 Sudoeste 5 Sudoeste 0 -- -- 100
2020-06-18 05:00:00 10.5 0 Calma 4 Nordeste 0 -- -- 100
2020-06-18 04:00:00 10.6 0 Calma 4 Oeste 0 -- -- 100
2020-06-18 03:00:00 10.6 2 Oeste 5 Sudoeste 0.2 -- -- 100
2020-06-18 02:00:00 10.8 0 Calma 3 Sudeste 0.2 -- -- 100
2020-06-18 01:00:00 10.9 0 Calma 3 Sudeste 0.2 -- -- 100
2020-06-18 00:00:00 11 2 Sudeste 4 Sudeste 0.6 -- -- 100
2020-06-17 23:00:00 11.1 2 Oeste 3 Sudoeste 0.4 -- -- 100
2020-06-17 22:00:00 11.2 2 Noroeste 14 Sudoeste 0.6 -- -- 99
2020-06-17 21:00:00 11.5 10 Sudoeste 15 Oeste 0.4 -- -- 98
2020-06-17 20:00:00 12.1 12 Noroeste 21 Noroeste 0.6 -- -- 96
2020-06-17 19:00:00 12.7 9 Oeste 24 Noroeste 0.4 -- -- 95
2020-06-17 18:00:00 14.1 12 Noroeste 31 Noroeste 0.6 -- -- 87
2020-06-17 17:00:00 19 15 Noroeste 25 Noroeste 0 -- -- 71
2020-06-17 16:00:00 17.2 19 Noroeste 28 Noroeste 0 -- -- 78
2020-06-17 15:00:00 15.2 19 Noroeste 30 Noroeste 0.2 -- -- 89
2020-06-17 14:00:00 13.8 18 Oeste 34 Noroeste 0 -- -- 90
2020-06-17 13:00:00 15.7 13 Norte 24 Norte 0 -- -- 92
2020-06-17 12:00:00 13 15 Noroeste 25 Noroeste 0 -- -- 94
2020-06-17 11:00:00 14.1 10 Noroeste 18 Noroeste 0 -- -- 93
2020-06-17 10:00:00 12.3 5 Noroeste 14 Noroeste 0.2 -- -- 99
2020-06-17 09:00:00 11.5 4 Norte 23 Oeste 0.2 -- -- 99
2020-06-17 08:00:00 11.3 16 Noroeste 24 Noroeste 0 -- -- 95
2020-06-17 07:00:00 11.1 10 Noroeste 21 Noroeste 0 -- -- 96
2020-06-17 06:00:00 11.1 8 Noroeste 17 Noroeste 0 -- -- 96
2020-06-17 05:00:00 11.1 8 Noroeste 14 Noroeste 0 -- -- 98
2020-06-17 04:00:00 10.9 3 Nordeste 6 Nordeste 0 -- -- 99
2020-06-17 03:00:00 11.2 3 Norte 20 Noroeste 0.2 -- -- 99
2020-06-17 02:00:00 11.4 9 Norte 15 Norte 0 -- -- 99
2020-06-17 01:00:00 11.6 10 Noroeste 21 Noroeste 0.2 -- -- 97
2020-06-17 00:00:00 12.1 9 Noroeste 21 Oeste 0 -- -- 95
2020-06-16 23:00:00 12 12 Noroeste 35 Oeste 0 -- -- 96
2020-06-16 22:00:00 12.5 20 Oeste 36 Oeste 0 -- -- 93
2020-06-16 21:00:00 12.8 13 Noroeste 23 Noroeste 0 -- -- 98
2020-06-16 20:00:00 12.9 15 Noroeste 28 Noroeste 0.2 -- -- 98
2020-06-16 19:00:00 13.2 18 Noroeste 30 Norte 0 -- -- 95
2020-06-16 18:00:00 14.8 9 Noroeste 20 Norte 0.2 -- -- 94
2020-06-16 17:00:00 15.1 10 Norte 17 Noroeste 0 -- -- 91
2020-06-16 16:00:00 14.1 4 Norte 15 Oeste 0 -- -- 98
2020-06-16 15:00:00 12.6 18 Oeste 37 Noroeste 0.6 -- -- 96
2020-06-16 14:00:00 13 23 Noroeste 33 Noroeste 0.6 -- -- 93
2020-06-16 13:00:00 15.2 9 Oeste 13 Noroeste 0 -- -- 95
2020-06-16 12:00:00 14.3 7 Oeste 18 Sudeste 0 -- -- 99
2020-06-16 11:00:00 14 0 Calma 6 Oeste 0 -- -- 100
2020-06-16 10:00:00 12.9 0 Calma 9 Oeste 0.4 -- -- 100
2020-06-16 09:00:00 12.2 3 Sudoeste 9 Oeste 0.8 -- -- 100
2020-06-16 08:00:00 11.7 3 Oeste 11 Sudeste 0 -- -- 100
2020-06-16 07:00:00 11.5 5 Este 8 Sudeste 0 -- -- 100
2020-06-16 06:00:00 11.4 4 Este 7 Nordeste 0 -- -- 100
2020-06-16 05:00:00 11.3 4 Oeste 12 Sudeste 0 -- -- 100
2020-06-16 04:00:00 11.4 4 Este 7 Sudeste 0 -- -- 100
2020-06-16 03:00:00 11.9 3 Sudeste 23 Oeste 1 -- -- 100
2020-06-16 02:00:00 12.6 8 Oeste 23 Oeste 0.4 -- -- 100
2020-06-16 01:00:00 12.6 4 Sudoeste 7 Este 0.2 -- -- 100
2020-06-16 00:00:00 12.6 3 Sudeste 9 Sudeste 0 -- -- 100
2020-06-15 23:00:00 12.7 6 Sudeste 9 Sudeste 0 -- -- 100
2020-06-15 22:00:00 12.8 6 Sudeste 9 Sudeste 0 -- -- 100
2020-06-15 21:00:00 13 3 Sudoeste 4 Sudoeste 0 -- -- 99
2020-06-15 20:00:00 12.8 4 Sudoeste 10 Oeste 0.8 -- -- 99
2020-06-15 19:00:00 13 3 Oeste 18 Oeste 0 -- -- 99
2020-06-15 18:00:00 13.4 10 Sudoeste 13 Sudoeste 0.6 -- -- 97
2020-06-15 17:00:00 14.4 3 Sur 21 Oeste 4.2 -- -- 94
2020-06-15 16:00:00 16.7 13 Sudoeste 19 Oeste 0 -- -- 80
2020-06-15 15:00:00 18.9 4 Sur 14 Sudoeste 0 -- -- 72
2020-06-15 14:00:00 19 11 Sudoeste 21 Oeste 0 -- -- 67
2020-06-15 13:00:00 17.8 16 Oeste 26 Oeste 0 -- -- 70
2020-06-15 12:00:00 19.5 12 Norte 28 Norte 0 -- -- 68
2020-06-15 11:00:00 18.8 4 Nordeste 10 Este 0 -- -- 84
2020-06-15 10:00:00 15.2 2 Norte 9 Sudeste 0 -- -- 100
2020-06-15 09:00:00 13.5 3 Este 8 Este 0 -- -- 100
2020-06-15 08:00:00 12 3 Sudoeste 5 Sudoeste 0 -- -- 100
2020-06-15 07:00:00 11.7 3 Este 5 Este 0 -- -- 100
2020-06-15 06:00:00 11.8 0 Calma 3 Noroeste 0 -- -- 100
2020-06-15 05:00:00 11.9 3 Sudoeste 4 Sudoeste 0 -- -- 100
2020-06-15 04:00:00 11.9 0 Calma 8 Sudeste 0 -- -- 100
2020-06-15 03:00:00 12.1 6 Sudeste 11 Este 0.4 -- -- 100
2020-06-15 02:00:00 12.3 3 Oeste 8 Sudeste 0 -- -- 100
2020-06-15 01:00:00 12.4 4 Sudeste 12 Sudeste 0 -- -- 100
2020-06-15 00:00:00 12.6 10 Sudeste 13 Sudeste 0 -- -- 99
2020-06-14 23:00:00 12.9 3 Sudeste 7 Este 0 -- -- 99
2020-06-14 22:00:00 13.1 5 Sur 6 Sur 0 -- -- 98
2020-06-14 21:00:00 13.4 5 Sudoeste 6 Sudoeste 0.2 -- -- 97
2020-06-14 20:00:00 14.1 0 Calma 8 Sudeste 0.2 -- -- 95
2020-06-14 19:00:00 14.6 3 Oeste 10 Oeste 0.4 -- -- 92
2020-06-14 18:00:00 14.9 10 Oeste 22 Sudoeste 0 -- -- 85
2020-06-14 17:00:00 17.7 5 Oeste 13 Oeste 0 -- -- 75
2020-06-14 16:00:00 19.2 6 Este 16 Este 0 -- -- 75
2020-06-14 15:00:00 18.9 3 Oeste 19 Noroeste 0 -- -- 68
2020-06-14 14:00:00 20 5 Norte 15 Noroeste 0 -- -- 66
2020-06-14 13:00:00 19 4 Sudoeste 12 Noroeste 0 -- -- 68
2020-06-14 12:00:00 17.9 4 Sudoeste 10 Sur 0 -- -- 72
2020-06-14 11:00:00 17.3 3 Nordeste 12 Este 0 -- -- 95
2020-06-14 10:00:00 13.8 2 Nordeste 6 Sudeste 0 -- -- 100
2020-06-14 09:00:00 11.9 3 Este 7 Sudeste 0 -- -- 100
2020-06-14 08:00:00 10.5 3 Sudeste 13 Sudeste 0 -- -- 100
2020-06-14 07:00:00 10.3 5 Este 11 Este 0 -- -- 100
2020-06-14 06:00:00 10.7 0 Calma 8 Nordeste 0 -- -- 100
2020-06-14 05:00:00 11 0 Calma 3 Este 0.2 -- -- 100
2020-06-14 04:00:00 11.1 2 Este 4 Este 0 -- -- 100
2020-06-14 03:00:00 10.9 2 Nordeste 8 Sudeste 0 -- -- 100
2020-06-14 02:00:00 11.1 3 Este 9 Este 0 -- -- 100
2020-06-14 01:00:00 11.5 7 Sudeste 13 Sudeste 0 -- -- 100
2020-06-14 00:00:00 11.9 7 Sudeste 11 Sudeste 0.2 -- -- 100
2020-06-13 23:00:00 12.3 5 Sudeste 7 Sur 0 -- -- 100
2020-06-13 22:00:00 12.2 2 Sudoeste 13 Oeste 1.4 -- -- 99
2020-06-13 21:00:00 13 5 Sudoeste 9 Sur 2 -- -- 97
2020-06-13 20:00:00 14.4 0 Calma 9 Sudeste 0.2 -- -- 95
2020-06-13 19:00:00 14.8 8 Sudeste 13 Sudeste 1 -- -- 97
2020-06-13 18:00:00 14.7 0 Calma 15 Oeste 4.8 -- -- 97
2020-06-13 17:00:00 15.2 6 Sudeste 23 Sudeste 1.6 -- -- 91
2020-06-13 16:00:00 17.9 9 Este 17 Sudeste 0.2 -- -- 84
2020-06-13 15:00:00 17.5 7 Norte 19 Este 0 -- -- 75
2020-06-13 14:00:00 17.9 12 Oeste 22 Norte 0 -- -- 62
2020-06-13 13:00:00 18.7 12 Noroeste 28 Noroeste 0.2 -- -- 64
2020-06-13 12:00:00 17.2 15 Noroeste 29 Norte 0 -- -- 66
2020-06-13 11:00:00 16.5 9 Noroeste 20 Noroeste 0 -- -- 76
2020-06-13 10:00:00 13.3 0 Calma 24 Oeste 0 -- -- 83
2020-06-13 09:00:00 11.6 13 Oeste 23 Oeste 0 -- -- 85
2020-06-13 08:00:00 11.9 14 Noroeste 25 Norte 0 -- -- 82
2020-06-13 07:00:00 11.7 13 Noroeste 22 Noroeste 0 -- -- 81
2020-06-13 06:00:00 11.5 12 Norte 26 Norte 0 -- -- 83
2020-06-13 05:00:00 11.7 17 Noroeste 28 Norte 0 -- -- 82
2020-06-13 04:00:00 11.1 10 Noroeste 23 Norte 0 -- -- 89
2020-06-13 03:00:00 10.9 15 Noroeste 26 Norte 0.2 -- -- 94
2020-06-13 02:00:00 11.1 15 Noroeste 25 Noroeste 0 -- -- 95
2020-06-13 01:00:00 11 11 Noroeste 18 Noroeste 0.4 -- -- 98
2020-06-13 00:00:00 11 9 Oeste 15 Oeste 0.2 -- -- 97
2020-06-12 23:00:00 11.2 2 Oeste 13 Norte 0 -- -- 95
2020-06-12 22:00:00 11.4 6 Noroeste 18 Noroeste 0.2 -- -- 94
2020-06-12 21:00:00 13.2 13 Oeste 19 Oeste 0.2 -- -- 84
2020-06-12 20:00:00 15.1 8 Noroeste 27 Noroeste 0 -- -- 75
2020-06-12 19:00:00 15.4 20 Noroeste 39 Norte 0 -- -- 67
2020-06-12 18:00:00 17 23 Norte 39 Noroeste 0 -- -- 66
2020-06-12 17:00:00 15.8 22 Noroeste 40 Oeste 0 -- -- 70
2020-06-12 16:00:00 11.6 8 Nordeste 70 Oeste 1.2 -- -- 99
2020-06-12 15:00:00 9.6 32 Oeste 63 Oeste 1.8 -- -- 94
2020-06-12 14:00:00 15.4 19 Oeste 31 Oeste 0 -- -- 71
2020-06-12 13:00:00 15 11 Noroeste 42 Oeste 0 -- -- 79
2020-06-12 12:00:00 13 19 Oeste 40 Noroeste 0 -- -- 78
2020-06-12 11:00:00 11.8 30 Noroeste 47 Norte 0 -- -- 77
2020-06-12 10:00:00 11.9 28 Noroeste 40 Noroeste 0 -- -- 73
2020-06-12 09:00:00 11.5 17 Noroeste 39 Oeste 0 -- -- 69
2020-06-12 08:00:00 10.8 20 Noroeste 52 Oeste 0 -- -- 71
2020-06-12 07:00:00 9.9 31 Oeste 51 Oeste 0.2 -- -- 79
2020-06-12 06:00:00 9.6 26 Noroeste 55 Noroeste 0.2 -- -- 86
2020-06-12 05:00:00 10.8 27 Oeste 56 Oeste 0.2 -- -- 78
2020-06-12 04:00:00 12.7 32 Oeste 51 Oeste 0 -- -- 64
2020-06-12 03:00:00 11.9 8 Norte 31 Oeste 0 -- -- 69
2020-06-12 02:00:00 10.9 17 Sudoeste 46 Sudoeste 0 -- -- 74
2020-06-12 01:00:00 8.3 6 Sudeste 15 Norte 0 -- -- 95
2020-06-12 00:00:00 8.2 8 Sudeste 27 Sudeste 0 -- -- 98
2020-06-11 23:00:00 8.2 23 Sudeste 30 Sudeste 0 -- -- 98
2020-06-11 22:00:00 9 5 Este 15 Norte 0 -- -- 89
2020-06-11 21:00:00 11.1 10 Noroeste 24 Norte 0 -- -- 85
2020-06-11 20:00:00 9.2 13 Noroeste 48 Oeste 1.4 -- -- 99
2020-06-11 19:00:00 9.6 19 Noroeste 46 Noroeste 1 -- -- 100
2020-06-11 18:00:00 10.4 18 Noroeste 36 Oeste 1.4 -- -- 99
2020-06-11 17:00:00 10.5 22 Noroeste 40 Noroeste 0.8 -- -- 97
2020-06-11 16:00:00 12.3 16 Noroeste 50 Oeste 0 -- -- 93
2020-06-11 15:00:00 10.8 36 Oeste 56 Oeste 0.6 -- -- 95
2020-06-11 14:00:00 11.8 26 Noroeste 41 Oeste 0.8 -- -- 100
2020-06-11 13:00:00 10.9 24 Noroeste 59 Oeste 1.4 -- -- 99
2020-06-11 12:00:00 10.9 37 Oeste 58 Oeste 3.8 -- -- 98
2020-06-11 11:00:00 13.8 36 Noroeste 48 Noroeste 0 -- -- 92
2020-06-11 10:00:00 14.1 15 Norte 35 Noroeste 0.4 -- -- 100
2020-06-11 09:00:00 12.1 22 Noroeste 34 Noroeste 0.4 -- -- 97
2020-06-11 08:00:00 11.5 6 Oeste 13 Oeste 0 -- -- 98
2020-06-11 07:00:00 11 2 Sudoeste 8 Sudeste 0 -- -- 100
2020-06-11 06:00:00 11 3 Sudeste 5 Sudeste 0 -- -- 100
2020-06-11 05:00:00 10.9 3 Sudoeste 4 Oeste 0 -- -- 100
2020-06-11 04:00:00 10.9 2 Sudoeste 3 Nordeste 0 -- -- 99
2020-06-11 03:00:00 11.1 0 Calma 3 Sudeste 0 -- -- 98
2020-06-11 02:00:00 11.4 2 Nordeste 2 Nordeste 0 -- -- 98
2020-06-11 01:00:00 11.4 2 Sur 6 Noroeste 0 -- -- 98
2020-06-11 00:00:00 11.4 4 Oeste 9 Sudoeste 0 -- -- 97